Time;durP1;ratioP1;P1;durP2;ratioP2;P2;SDS_P1;SDS_P2;PMS_P1;PMS_P2;Temp;Humidity;BMP_temperature;BMP_pressure;BME280_temperature;BME280_humidity;BME280_pressure;Samples;Min_cycle;Max_cycle;Signal;HPM_P1;HPM_P2
2024/03/06 00:00:28;;;;;;;69.50;38.23;;;;;;;;;;5067951;28;20458;-66
2024/03/06 00:02:56;;;;;;;62.80;39.57;;;;;;;;;;5079226;28;20980;-66
2024/03/06 00:05:22;;;;;;;62.60;39.20;;;;;;;;;;5074247;28;20475;-66
2024/03/06 00:07:48;;;;;;;63.43;39.10;;;;;;;;;;5077079;28;20440;-65
2024/03/06 00:10:15;;;;;;;63.57;39.10;;;;;;;;;;5083225;28;20468;-66
2024/03/06 00:12:41;;;;;;;71.20;38.30;;;;;;;;;;5077373;28;20574;-65
2024/03/06 00:15:08;;;;;;;63.30;37.40;;;;;;;;;;5071008;28;20479;-65
2024/03/06 00:17:34;;;;;;;70.27;41.20;;;;;;;;;;5073742;28;20472;-65
2024/03/06 00:20:05;;;;;;;65.63;41.50;;;;;;;;;;5078441;28;20472;-65
2024/03/06 00:22:31;;;;;;;65.40;39.93;;;;;;;;;;5080410;28;20526;-66
2024/03/06 00:24:57;;;;;;;64.50;41.50;;;;;;;;;;5082811;28;20448;-65
2024/03/06 00:27:24;;;;;;;65.07;39.83;;;;;;;;;;5085472;28;20472;-65
2024/03/06 00:29:50;;;;;;;63.97;37.53;;;;;;;;;;5077350;28;21109;-65
2024/03/06 00:32:17;;;;;;;61.67;37.80;;;;;;;;;;5080681;28;20463;-64
2024/03/06 00:34:43;;;;;;;62.63;36.83;;;;;;;;;;5080997;28;20499;-65
2024/03/06 00:37:11;;;;;;;59.73;38.40;;;;;;;;;;5081122;28;20504;-64
2024/03/06 00:39:37;;;;;;;64.70;39.30;;;;;;;;;;5076645;28;20479;-65
2024/03/06 00:42:04;;;;;;;60.57;37.60;;;;;;;;;;5085078;28;20482;-65
2024/03/06 00:44:31;;;;;;;65.20;40.40;;;;;;;;;;5083187;28;20451;-65
2024/03/06 00:46:57;;;;;;;61.40;39.30;;;;;;;;;;5079578;28;20569;-65
2024/03/06 00:49:24;;;;;;;63.70;41.60;;;;;;;;;;5079223;28;20459;-65
2024/03/06 00:51:50;;;;;;;67.50;39.87;;;;;;;;;;5086319;28;20451;-65
2024/03/06 00:54:18;;;;;;;71.07;40.90;;;;;;;;;;5083961;28;20502;-65
2024/03/06 00:56:44;;;;;;;74.60;42.37;;;;;;;;;;5077429;28;20499;-65
2024/03/06 00:59:11;;;;;;;79.23;44.07;;;;;;;;;;5074735;28;20447;-65
2024/03/06 01:01:38;;;;;;;74.07;43.80;;;;;;;;;;5084691;28;20447;-65
2024/03/06 01:04:04;;;;;;;76.50;43.80;;;;;;;;;;5079155;28;20479;-65
2024/03/06 01:06:31;;;;;;;68.83;41.90;;;;;;;;;;5082111;28;20503;-65
2024/03/06 01:08:58;;;;;;;82.77;44.80;;;;;;;;;;5074269;28;20481;-65
2024/03/06 01:11:26;;;;;;;79.73;43.20;;;;;;;;;;5071120;28;20451;-65
2024/03/06 01:13:52;;;;;;;77.30;44.37;;;;;;;;;;5076459;28;20467;-65
2024/03/06 01:16:19;;;;;;;77.07;42.63;;;;;;;;;;5080068;28;20482;-65
2024/03/06 01:18:45;;;;;;;87.33;46.27;;;;;;;;;;5079796;28;20472;-65
2024/03/06 01:21:12;;;;;;;82.23;45.27;;;;;;;;;;5076130;28;20474;-65
2024/03/06 01:23:38;;;;;;;87.70;45.60;;;;;;;;;;5079474;28;20452;-65
2024/03/06 01:26:04;;;;;;;83.80;44.10;;;;;;;;;;5079734;28;21035;-65
2024/03/06 01:28:33;;;;;;;80.00;45.23;;;;;;;;;;5079971;28;20482;-65
2024/03/06 01:30:59;;;;;;;88.83;45.30;;;;;;;;;;5083357;28;20451;-65
2024/03/06 01:33:26;;;;;;;79.90;46.10;;;;;;;;;;5076753;28;20934;-65
2024/03/06 01:35:52;;;;;;;84.47;45.40;;;;;;;;;;5077790;28;20464;-65
2024/03/06 01:38:18;;;;;;;104.83;47.20;;;;;;;;;;5080579;28;20557;-65
2024/03/06 01:40:45;;;;;;;87.17;46.70;;;;;;;;;;5078956;28;21000;-65
2024/03/06 01:43:19;;;;;;;84.27;47.60;;;;;;;;;;5080903;28;20509;-65
2024/03/06 01:45:48;;;;;;;91.80;48.93;;;;;;;;;;5078389;28;20538;-65
2024/03/06 01:48:14;;;;;;;105.50;51.70;;;;;;;;;;5082363;28;20539;-65
2024/03/06 01:50:42;;;;;;;100.40;49.33;;;;;;;;;;5076651;28;20491;-65
2024/03/06 01:53:09;;;;;;;104.70;49.67;;;;;;;;;;5085707;28;20972;-65
2024/03/06 01:55:35;;;;;;;98.83;48.53;;;;;;;;;;5078656;28;20452;-65
2024/03/06 01:58:02;;;;;;;99.80;49.77;;;;;;;;;;5076431;28;20479;-65
2024/03/06 02:00:29;;;;;;;109.57;50.40;;;;;;;;;;5079107;28;20482;-65
2024/03/06 02:02:57;;;;;;;106.03;49.73;;;;;;;;;;5079633;28;20452;-65
2024/03/06 02:05:23;;;;;;;113.37;48.17;;;;;;;;;;5074013;28;20475;-66
2024/03/06 02:07:52;;;;;;;107.03;52.33;;;;;;;;;;5079017;28;20548;-65
2024/03/06 02:10:19;;;;;;;102.87;51.67;;;;;;;;;;5076475;28;20443;-65
2024/03/06 02:12:45;;;;;;;107.53;50.70;;;;;;;;;;5078283;28;20487;-65
2024/03/06 02:15:12;;;;;;;104.63;50.53;;;;;;;;;;5078630;28;20484;-65
2024/03/06 02:17:39;;;;;;;111.20;49.97;;;;;;;;;;5076547;28;20533;-65
2024/03/06 02:20:12;;;;;;;104.83;50.23;;;;;;;;;;5067868;28;20905;-66
2024/03/06 02:22:39;;;;;;;116.20;49.90;;;;;;;;;;5078848;28;20478;-65
2024/03/06 02:25:07;;;;;;;108.33;52.57;;;;;;;;;;5080319;28;20456;-65
2024/03/06 02:27:33;;;;;;;115.80;49.33;;;;;;;;;;5076951;28;20574;-65
2024/03/06 02:30:00;;;;;;;111.57;51.83;;;;;;;;;;5076187;28;20465;-65
2024/03/06 02:32:26;;;;;;;106.90;50.30;;;;;;;;;;5071600;28;20444;-65
2024/03/06 02:34:52;;;;;;;112.17;52.23;;;;;;;;;;5083803;28;20444;-65
2024/03/06 02:37:19;;;;;;;114.00;52.83;;;;;;;;;;5073690;28;20472;-65
2024/03/06 02:39:47;;;;;;;108.83;51.60;;;;;;;;;;5069634;28;20482;-66
2024/03/06 02:42:13;;;;;;;109.37;51.00;;;;;;;;;;5079409;28;20444;-65
2024/03/06 02:44:40;;;;;;;109.30;50.33;;;;;;;;;;5079604;28;21404;-65
2024/03/06 02:47:06;;;;;;;118.47;54.67;;;;;;;;;;5076398;28;20518;-65
2024/03/06 02:49:32;;;;;;;115.70;51.87;;;;;;;;;;5083399;28;20483;-65
2024/03/06 02:52:00;;;;;;;110.33;50.17;;;;;;;;;;5080305;28;20491;-65
2024/03/06 02:54:27;;;;;;;118.10;52.67;;;;;;;;;;5078426;28;20448;-65
2024/03/06 02:56:54;;;;;;;110.10;51.60;;;;;;;;;;5075058;28;20555;-65
2024/03/06 02:59:21;;;;;;;115.30;51.50;;;;;;;;;;5081729;28;20472;-65
2024/03/06 03:01:48;;;;;;;131.30;54.83;;;;;;;;;;5081793;28;20839;-66
2024/03/06 03:04:14;;;;;;;127.50;54.50;;;;;;;;;;5084590;28;20452;-65
2024/03/06 03:06:40;;;;;;;111.60;51.80;;;;;;;;;;5074258;28;20528;-65
2024/03/06 03:09:07;;;;;;;116.60;52.00;;;;;;;;;;5076681;28;20519;-65
2024/03/06 03:11:33;;;;;;;115.83;51.13;;;;;;;;;;5078645;28;20548;-65
2024/03/06 03:14:01;;;;;;;125.70;53.20;;;;;;;;;;5077463;28;20458;-65
2024/03/06 03:16:28;;;;;;;104.13;51.80;;;;;;;;;;5078541;28;20801;-65
2024/03/06 03:18:54;;;;;;;118.40;52.47;;;;;;;;;;5082732;28;20456;-66
2024/03/06 03:21:21;;;;;;;121.90;53.67;;;;;;;;;;5082620;28;20448;-65
2024/03/06 03:23:48;;;;;;;121.50;51.13;;;;;;;;;;5078778;28;20466;-66
2024/03/06 03:26:15;;;;;;;136.00;54.43;;;;;;;;;;5071799;28;20503;-65
2024/03/06 03:28:41;;;;;;;108.90;49.53;;;;;;;;;;5076697;28;20503;-66
2024/03/06 03:31:10;;;;;;;127.50;55.47;;;;;;;;;;5083830;28;20486;-66
2024/03/06 03:33:38;;;;;;;113.60;51.57;;;;;;;;;;5075745;28;20488;-65
2024/03/06 03:36:05;;;;;;;119.80;52.97;;;;;;;;;;5076821;28;20455;-66
2024/03/06 03:38:31;;;;;;;116.60;53.67;;;;;;;;;;5080258;28;20479;-66
2024/03/06 03:40:58;;;;;;;112.10;52.97;;;;;;;;;;5078352;28;20470;-66
2024/03/06 03:43:24;;;;;;;120.30;53.83;;;;;;;;;;5073861;28;20441;-65
2024/03/06 03:45:51;;;;;;;120.07;52.97;;;;;;;;;;5078314;28;20480;-66
2024/03/06 03:48:19;;;;;;;140.77;54.03;;;;;;;;;;5084960;28;21397;-66
2024/03/06 03:50:45;;;;;;;119.43;54.20;;;;;;;;;;5076896;28;20468;-66
2024/03/06 03:53:11;;;;;;;105.57;51.57;;;;;;;;;;5080389;28;20444;-65
2024/03/06 03:55:38;;;;;;;121.00;51.90;;;;;;;;;;5084013;28;20476;-66
2024/03/06 03:58:06;;;;;;;116.43;53.43;;;;;;;;;;5076569;28;20519;-66
2024/03/06 04:00:33;;;;;;;136.33;53.20;;;;;;;;;;5079622;28;20443;-66
2024/03/06 04:02:59;;;;;;;117.63;49.27;;;;;;;;;;5080237;28;20446;-66
2024/03/06 04:05:27;;;;;;;117.40;51.90;;;;;;;;;;5078666;28;20576;-66
2024/03/06 04:07:53;;;;;;;119.20;50.70;;;;;;;;;;5085166;28;20489;-66
2024/03/06 04:10:20;;;;;;;105.60;52.10;;;;;;;;;;5080568;28;20520;-66
2024/03/06 04:12:47;;;;;;;95.00;49.93;;;;;;;;;;5083626;28;20474;-66
2024/03/06 04:15:13;;;;;;;100.40;48.40;;;;;;;;;;5081105;28;20491;-66
2024/03/06 04:17:40;;;;;;;117.10;51.50;;;;;;;;;;5079935;28;20472;-66
2024/03/06 04:20:07;;;;;;;133.63;54.73;;;;;;;;;;5079624;28;20470;-66
2024/03/06 04:22:35;;;;;;;113.20;50.10;;;;;;;;;;5081639;28;20436;-66
2024/03/06 04:25:03;;;;;;;126.27;53.67;;;;;;;;;;5086261;28;20543;-66
2024/03/06 04:27:30;;;;;;;124.33;53.47;;;;;;;;;;5080734;28;20476;-66
2024/03/06 04:29:56;;;;;;;122.37;50.87;;;;;;;;;;5084038;28;20452;-66
2024/03/06 04:32:23;;;;;;;126.87;50.00;;;;;;;;;;5085257;28;20538;-66
2024/03/06 04:34:49;;;;;;;131.77;49.43;;;;;;;;;;5073174;28;21003;-66
2024/03/06 04:37:16;;;;;;;134.23;53.40;;;;;;;;;;5082920;28;20480;-66
2024/03/06 04:39:43;;;;;;;132.23;53.03;;;;;;;;;;5079310;28;20876;-65
2024/03/06 04:42:10;;;;;;;102.17;48.83;;;;;;;;;;5088618;28;20535;-66
2024/03/06 04:44:37;;;;;;;104.50;49.63;;;;;;;;;;5079625;28;20444;-66
2024/03/06 04:47:03;;;;;;;130.10;54.53;;;;;;;;;;5070705;28;20535;-66
2024/03/06 04:49:33;;;;;;;118.90;52.47;;;;;;;;;;5089270;28;20540;-66
2024/03/06 04:51:59;;;;;;;132.97;54.10;;;;;;;;;;5081985;28;20534;-66
2024/03/06 04:54:25;;;;;;;136.13;54.57;;;;;;;;;;5079606;28;20546;-66
2024/03/06 04:56:53;;;;;;;141.00;51.90;;;;;;;;;;5081888;28;20891;-66
2024/03/06 04:59:20;;;;;;;129.53;53.80;;;;;;;;;;5076807;28;20527;-66
2024/03/06 05:01:46;;;;;;;161.30;57.97;;;;;;;;;;5079808;28;20871;-66
2024/03/06 05:04:12;;;;;;;128.27;54.07;;;;;;;;;;5082407;28;20483;-66
2024/03/06 05:06:39;;;;;;;142.93;54.70;;;;;;;;;;5076800;28;20471;-66
2024/03/06 05:09:05;;;;;;;110.63;50.93;;;;;;;;;;5074745;28;20476;-66
2024/03/06 05:11:32;;;;;;;156.40;53.30;;;;;;;;;;5074341;28;20436;-66
2024/03/06 05:14:00;;;;;;;130.27;52.40;;;;;;;;;;5084918;28;20460;-66
2024/03/06 05:16:27;;;;;;;137.73;54.73;;;;;;;;;;5078255;28;20565;-66
2024/03/06 05:18:53;;;;;;;118.33;53.47;;;;;;;;;;5084345;28;20456;-66
2024/03/06 05:21:22;;;;;;;156.57;57.10;;;;;;;;;;5086568;28;20443;-66
2024/03/06 05:23:48;;;;;;;143.67;57.00;;;;;;;;;;5087511;28;20456;-66
2024/03/06 05:26:14;;;;;;;134.33;56.27;;;;;;;;;;5082314;28;20471;-65
2024/03/06 05:28:41;;;;;;;119.80;53.80;;;;;;;;;;5079996;28;20493;-66
2024/03/06 05:31:16;;;;;;;129.23;53.77;;;;;;;;;;5081260;28;20854;-66
2024/03/06 05:33:43;;;;;;;121.80;53.13;;;;;;;;;;5078480;28;20470;-66
2024/03/06 05:36:09;;;;;;;126.47;53.83;;;;;;;;;;5078751;28;20467;-66
2024/03/06 05:38:36;;;;;;;142.93;54.97;;;;;;;;;;5089614;28;20476;-66
2024/03/06 05:41:02;;;;;;;135.53;54.93;;;;;;;;;;5077718;28;21041;-65
2024/03/06 05:43:29;;;;;;;134.53;57.30;;;;;;;;;;5079222;28;20459;-66
2024/03/06 05:45:55;;;;;;;162.97;59.40;;;;;;;;;;5077597;28;20475;-66
2024/03/06 05:48:24;;;;;;;145.17;58.57;;;;;;;;;;5084770;28;20850;-64
2024/03/06 05:50:50;;;;;;;131.30;57.23;;;;;;;;;;5087214;28;20443;-66
2024/03/06 05:53:16;;;;;;;153.37;57.97;;;;;;;;;;5075562;28;20523;-65
2024/03/06 05:55:43;;;;;;;145.10;57.10;;;;;;;;;;5074969;28;20482;-66
2024/03/06 05:58:09;;;;;;;147.10;61.63;;;;;;;;;;5076864;28;20504;-66
2024/03/06 06:00:36;;;;;;;145.57;59.00;;;;;;;;;;5084602;28;20520;-66
2024/03/06 06:03:02;;;;;;;148.20;58.90;;;;;;;;;;5077858;28;20452;-66
2024/03/06 06:05:30;;;;;;;145.33;61.37;;;;;;;;;;5078724;28;20512;-65
2024/03/06 06:07:57;;;;;;;144.73;59.37;;;;;;;;;;5079271;28;20508;-66
2024/03/06 06:10:23;;;;;;;131.40;57.13;;;;;;;;;;5078896;28;21011;-66
2024/03/06 06:12:50;;;;;;;149.20;61.17;;;;;;;;;;5083521;28;20511;-66
2024/03/06 06:15:16;;;;;;;149.50;57.63;;;;;;;;;;5079498;28;21460;-67
2024/03/06 06:17:44;;;;;;;143.23;57.60;;;;;;;;;;5078996;28;20451;-67
2024/03/06 06:20:14;;;;;;;151.50;60.00;;;;;;;;;;5077819;28;20459;-66
2024/03/06 06:22:42;;;;;;;158.67;60.70;;;;;;;;;;5082668;28;20447;-67
2024/03/06 06:25:09;;;;;;;176.60;62.17;;;;;;;;;;5077764;28;20487;-66
2024/03/06 06:27:36;;;;;;;196.10;62.03;;;;;;;;;;5072838;28;20570;-67
2024/03/06 06:30:02;;;;;;;163.87;61.40;;;;;;;;;;5080900;28;21000;-67
2024/03/06 06:32:29;;;;;;;161.80;60.50;;;;;;;;;;5081824;28;20472;-66
2024/03/06 06:34:56;;;;;;;140.60;61.67;;;;;;;;;;5084795;28;20836;-67
2024/03/06 06:37:22;;;;;;;167.77;62.73;;;;;;;;;;5072273;28;20514;-66
2024/03/06 06:39:50;;;;;;;143.03;58.37;;;;;;;;;;5073396;28;20455;-64
2024/03/06 06:42:17;;;;;;;161.23;62.83;;;;;;;;;;5078847;28;20448;-64
2024/03/06 06:44:43;;;;;;;153.53;62.20;;;;;;;;;;5076125;28;20455;-65
2024/03/06 06:47:09;;;;;;;170.43;61.07;;;;;;;;;;5077189;28;20504;-65
2024/03/06 06:49:36;;;;;;;141.00;59.43;;;;;;;;;;5076889;28;20479;-66
2024/03/06 06:52:02;;;;;;;148.13;57.30;;;;;;;;;;5077296;28;20455;-66
2024/03/06 06:54:28;;;;;;;166.77;63.40;;;;;;;;;;5076904;28;20456;-65
2024/03/06 06:56:56;;;;;;;142.40;59.67;;;;;;;;;;5077286;28;20549;-65
2024/03/06 06:59:23;;;;;;;136.27;58.17;;;;;;;;;;5076219;28;20440;-64
2024/03/06 07:01:49;;;;;;;138.50;58.77;;;;;;;;;;5070517;28;21254;-66
2024/03/06 07:04:17;;;;;;;132.70;59.40;;;;;;;;;;5059983;28;20473;-65
2024/03/06 07:06:43;;;;;;;133.77;59.93;;;;;;;;;;5072675;28;20462;-65
2024/03/06 07:09:10;;;;;;;132.77;59.53;;;;;;;;;;5077526;28;20511;-65
2024/03/06 07:11:36;;;;;;;130.03;58.37;;;;;;;;;;5075464;28;20445;-66
2024/03/06 07:14:04;;;;;;;147.90;59.30;;;;;;;;;;5076957;28;20452;-66
2024/03/06 07:16:30;;;;;;;131.63;59.37;;;;;;;;;;5077471;28;20512;-66
2024/03/06 07:18:57;;;;;;;143.47;60.60;;;;;;;;;;5076884;28;20490;-66
2024/03/06 07:21:23;;;;;;;133.43;57.80;;;;;;;;;;5075818;28;20448;-65
2024/03/06 07:23:50;;;;;;;130.47;57.37;;;;;;;;;;5076115;28;20458;-67
2024/03/06 07:26:16;;;;;;;141.37;62.63;;;;;;;;;;5073616;28;20483;-66
2024/03/06 07:28:42;;;;;;;129.47;57.00;;;;;;;;;;5076871;28;20569;-64
2024/03/06 07:31:10;;;;;;;123.37;56.47;;;;;;;;;;5075957;28;20452;-65
2024/03/06 07:33:37;;;;;;;144.63;57.77;;;;;;;;;;5077301;28;20511;-66
2024/03/06 07:36:04;;;;;;;134.70;58.77;;;;;;;;;;5079004;28;20440;-66
2024/03/06 07:38:30;;;;;;;128.47;61.00;;;;;;;;;;5064987;28;20488;-66
2024/03/06 07:40:57;;;;;;;125.63;57.43;;;;;;;;;;5077317;28;20482;-65
2024/03/06 07:43:24;;;;;;;139.00;59.47;;;;;;;;;;5080630;28;20478;-65
2024/03/06 07:45:50;;;;;;;133.10;58.80;;;;;;;;;;5081268;28;20448;-65
2024/03/06 07:48:18;;;;;;;149.80;60.27;;;;;;;;;;5079851;28;20495;-66
2024/03/06 07:50:44;;;;;;;126.23;57.53;;;;;;;;;;5068919;28;20491;-66
2024/03/06 07:53:11;;;;;;;122.90;57.53;;;;;;;;;;5078695;28;20448;-66
2024/03/06 07:55:38;;;;;;;119.70;55.97;;;;;;;;;;5083630;28;20454;-67
2024/03/06 07:58:05;;;;;;;119.80;57.20;;;;;;;;;;5068498;28;20484;-67
2024/03/06 08:00:31;;;;;;;96.83;45.10;;;;;;;;;;5056918;28;20479;-66
2024/03/06 08:02:58;;;;;;;106.70;51.53;;;;;;;;;;5057242;28;20484;-66
2024/03/06 08:05:25;;;;;;;130.70;56.60;;;;;;;;;;5058872;28;20448;-66
2024/03/06 08:07:52;;;;;;;113.93;54.50;;;;;;;;;;5055426;28;20520;-67
2024/03/06 08:10:18;;;;;;;122.77;55.43;;;;;;;;;;5059448;28;20484;-66
2024/03/06 08:12:45;;;;;;;129.83;56.43;;;;;;;;;;5059954;28;20448;-67
2024/03/06 08:15:12;;;;;;;111.07;54.60;;;;;;;;;;5059907;28;20440;-63
2024/03/06 08:17:41;;;;;;;112.60;55.83;;;;;;;;;;5056735;28;20524;-65
2024/03/06 08:20:08;;;;;;;113.03;54.70;;;;;;;;;;5058967;28;20448;-64
2024/03/06 08:22:38;;;;;;;112.70;56.03;;;;;;;;;;5059487;28;20481;-64
2024/03/06 08:25:05;;;;;;;111.67;52.80;;;;;;;;;;5059139;28;20520;-65
2024/03/06 08:27:32;;;;;;;125.10;55.07;;;;;;;;;;5059130;28;20557;-65
2024/03/06 08:29:58;;;;;;;124.20;57.07;;;;;;;;;;5060273;28;21033;-64
2024/03/06 08:32:25;;;;;;;109.80;55.47;;;;;;;;;;5058736;28;20441;-65
2024/03/06 08:34:51;;;;;;;108.60;51.27;;;;;;;;;;5042670;28;20465;-65
2024/03/06 08:37:17;;;;;;;109.67;52.30;;;;;;;;;;5056527;28;20437;-65
2024/03/06 08:39:45;;;;;;;114.03;55.20;;;;;;;;;;5056580;28;20452;-65
2024/03/06 08:42:12;;;;;;;100.30;52.93;;;;;;;;;;5058500;28;20906;-65
2024/03/06 08:44:38;;;;;;;122.87;54.23;;;;;;;;;;5060058;28;20487;-64
2024/03/06 08:47:05;;;;;;;112.57;53.63;;;;;;;;;;5059475;28;20441;-65
2024/03/06 08:49:31;;;;;;;103.17;52.00;;;;;;;;;;5052603;28;20523;-64
2024/03/06 08:51:58;;;;;;;111.87;52.30;;;;;;;;;;5059615;28;20437;-65
2024/03/06 08:54:24;;;;;;;110.83;55.07;;;;;;;;;;5058944;28;20449;-65
2024/03/06 08:56:53;;;;;;;126.70;52.93;;;;;;;;;;5062042;28;20592;-65
2024/03/06 08:59:19;;;;;;;100.97;52.30;;;;;;;;;;5079581;28;21334;-66
2024/03/06 09:01:47;;;;;;;115.33;54.07;;;;;;;;;;5079224;28;20468;-68
2024/03/06 09:04:13;;;;;;;123.93;57.23;;;;;;;;;;5078861;28;20463;-70
2024/03/06 09:06:40;;;;;;;111.77;52.93;;;;;;;;;;5064129;28;20448;-65
2024/03/06 09:09:06;;;;;;;106.80;54.30;;;;;;;;;;5080221;28;20492;-65
2024/03/06 09:11:33;;;;;;;99.77;51.27;;;;;;;;;;5080080;28;20495;-66
2024/03/06 09:14:00;;;;;;;93.83;50.87;;;;;;;;;;5080350;28;20460;-66
2024/03/06 09:16:27;;;;;;;100.10;51.17;;;;;;;;;;5079767;28;20444;-66
2024/03/06 09:18:53;;;;;;;89.10;49.10;;;;;;;;;;5072169;28;20448;-65
2024/03/06 09:21:21;;;;;;;101.43;50.83;;;;;;;;;;5080288;28;21138;-68
2024/03/06 09:23:51;;;;;;;98.40;50.77;;;;;;;;;;5080053;28;20482;-66
2024/03/06 09:26:17;;;;;;;84.40;45.80;;;;;;;;;;5076779;28;20448;-68
2024/03/06 09:28:44;;;;;;;104.37;51.10;;;;;;;;;;5077512;28;20495;-66
2024/03/06 09:31:13;;;;;;;93.60;49.70;;;;;;;;;;5076235;28;20444;-66
2024/03/06 09:33:39;;;;;;;85.80;49.10;;;;;;;;;;5075798;28;20459;-66
2024/03/06 09:36:06;;;;;;;96.20;50.17;;;;;;;;;;5080208;28;20472;-68
2024/03/06 09:38:33;;;;;;;96.87;50.70;;;;;;;;;;5080616;28;20452;-66
2024/03/06 09:40:59;;;;;;;91.30;48.27;;;;;;;;;;5079255;28;20472;-66
2024/03/06 09:43:25;;;;;;;94.80;50.83;;;;;;;;;;5077708;28;20448;-67
2024/03/06 09:45:52;;;;;;;93.10;50.47;;;;;;;;;;5079522;28;20452;-64
2024/03/06 09:48:21;;;;;;;102.97;51.60;;;;;;;;;;5078907;28;20930;-67
2024/03/06 09:50:50;;;;;;;98.97;51.23;;;;;;;;;;5079457;28;20513;-67
2024/03/06 09:53:16;;;;;;;90.80;50.73;;;;;;;;;;5077155;28;20494;-67
2024/03/06 09:55:43;;;;;;;100.43;50.43;;;;;;;;;;5067074;28;20609;-67
2024/03/06 09:58:10;;;;;;;96.07;48.40;;;;;;;;;;5079014;28;20553;-68
2024/03/06 10:00:37;;;;;;;114.57;50.97;;;;;;;;;;5076259;28;20445;-67
2024/03/06 10:03:05;;;;;;;90.63;51.67;;;;;;;;;;5078246;28;20855;-68
2024/03/06 10:05:34;;;;;;;114.60;50.67;;;;;;;;;;5076915;28;20461;-70
2024/03/06 10:08:01;;;;;;;94.53;49.27;;;;;;;;;;5077326;28;20619;-68
2024/03/06 10:10:28;;;;;;;94.67;52.80;;;;;;;;;;5078848;28;20440;-66
2024/03/06 10:12:54;;;;;;;125.77;50.83;;;;;;;;;;5072179;28;20488;-66
2024/03/06 10:15:21;;;;;;;98.00;49.43;;;;;;;;;;5066736;28;20503;-67
2024/03/06 10:17:48;;;;;;;106.47;50.73;;;;;;;;;;5077426;28;20487;-68
2024/03/06 10:20:19;;;;;;;98.33;50.33;;;;;;;;;;5077557;28;20509;-71
2024/03/06 10:22:48;;;;;;;97.33;51.13;;;;;;;;;;5076793;28;20522;-71
2024/03/06 10:25:13;;;;;;;108.77;53.10;;;;;;;;;;5075629;28;20448;-70
2024/03/06 10:27:40;;;;;;;120.23;55.33;;;;;;;;;;5075874;28;20464;-66
2024/03/06 10:30:10;;;;;;;114.47;54.37;;;;;;;;;;5077870;28;20231;-65
2024/03/06 10:32:37;;;;;;;104.93;50.80;;;;;;;;;;5074970;28;20517;-66
2024/03/06 10:35:06;;;;;;;104.93;49.63;;;;;;;;;;5077257;28;20462;-65
2024/03/06 10:37:34;;;;;;;122.93;52.00;;;;;;;;;;5078197;28;21072;-66
2024/03/06 10:40:05;;;;;;;105.53;53.83;;;;;;;;;;5076236;28;20444;-65
2024/03/06 10:42:33;;;;;;;115.13;53.47;;;;;;;;;;5075282;28;20444;-66
2024/03/06 10:45:00;;;;;;;138.00;53.30;;;;;;;;;;5077875;28;20487;-65
2024/03/06 10:47:27;;;;;;;119.40;54.73;;;;;;;;;;5067271;28;20429;-65
2024/03/06 10:49:54;;;;;;;120.80;56.17;;;;;;;;;;5073311;28;20515;-66
2024/03/06 10:52:21;;;;;;;127.43;54.03;;;;;;;;;;5077450;28;20452;-65
2024/03/06 10:54:49;;;;;;;110.93;53.03;;;;;;;;;;5073865;28;20456;-66
2024/03/06 10:57:18;;;;;;;121.40;57.10;;;;;;;;;;5077436;28;20480;-66
2024/03/06 10:59:45;;;;;;;115.03;56.77;;;;;;;;;;5077332;28;20455;-66
2024/03/06 11:02:12;;;;;;;120.60;53.80;;;;;;;;;;5077867;28;20447;-66
2024/03/06 11:04:40;;;;;;;113.37;53.57;;;;;;;;;;5077699;28;20468;-65
2024/03/06 11:07:07;;;;;;;123.80;54.30;;;;;;;;;;5078179;28;20472;-65
2024/03/06 11:09:35;;;;;;;121.53;54.27;;;;;;;;;;5076656;28;20492;-64
2024/03/06 11:12:02;;;;;;;106.10;54.57;;;;;;;;;;5077073;28;20451;-67
2024/03/06 11:14:31;;;;;;;109.63;53.23;;;;;;;;;;5077395;28;20532;-66
2024/03/06 11:17:03;;;;;;;123.17;53.83;;;;;;;;;;5075252;28;20440;-66
2024/03/06 11:19:30;;;;;;;120.23;51.63;;;;;;;;;;5069074;28;20444;-66
2024/03/06 11:21:56;;;;;;;119.90;57.10;;;;;;;;;;5077081;28;20450;-66
2024/03/06 11:24:22;;;;;;;110.53;53.77;;;;;;;;;;5074098;28;20483;-66
2024/03/06 11:26:49;;;;;;;106.60;50.13;;;;;;;;;;5069962;28;20458;-65
2024/03/06 11:29:19;;;;;;;118.13;52.00;;;;;;;;;;5067941;28;20229;-64
2024/03/06 11:32:03;;;;;;;107.27;53.80;;;;;;;;;;5076970;28;20526;-66
2024/03/06 11:34:31;;;;;;;106.60;48.63;;;;;;;;;;5066533;28;20456;-65
2024/03/06 11:36:58;;;;;;;114.80;53.00;;;;;;;;;;5075775;28;20486;-65
2024/03/06 11:39:24;;;;;;;111.30;49.73;;;;;;;;;;5076739;28;20472;-69
2024/03/06 11:41:51;;;;;;;106.80;47.87;;;;;;;;;;5066947;28;20498;-68
2024/03/06 11:44:20;;;;;;;95.93;49.07;;;;;;;;;;5075010;28;20453;-68
2024/03/06 11:46:48;;;;;;;105.00;50.73;;;;;;;;;;5072866;28;20436;-69
2024/03/06 11:49:20;;;;;;;95.33;44.37;;;;;;;;;;5076565;28;21461;-68
2024/03/06 11:51:47;;;;;;;107.43;50.07;;;;;;;;;;5076842;28;20441;-69
2024/03/06 11:54:13;;;;;;;103.23;51.00;;;;;;;;;;5073077;28;20454;-68
2024/03/06 11:56:40;;;;;;;110.50;47.07;;;;;;;;;;5074835;28;20452;-69
2024/03/06 11:59:07;;;;;;;118.83;52.07;;;;;;;;;;5056839;28;20649;-69
2024/03/06 12:01:34;;;;;;;105.87;48.70;;;;;;;;;;5057326;28;20886;-69
2024/03/06 12:04:01;;;;;;;103.83;50.20;;;;;;;;;;5056775;28;20453;-69
2024/03/06 12:06:29;;;;;;;105.60;47.67;;;;;;;;;;5052535;28;20445;-68
2024/03/06 12:08:55;;;;;;;115.10;49.53;;;;;;;;;;5054413;28;20984;-69
2024/03/06 12:11:22;;;;;;;110.43;50.30;;;;;;;;;;5056199;28;20460;-68
2024/03/06 12:13:49;;;;;;;107.07;49.27;;;;;;;;;;5055700;28;20851;-68
2024/03/06 12:16:15;;;;;;;101.17;48.33;;;;;;;;;;5055332;28;20473;-70
2024/03/06 12:18:42;;;;;;;111.17;51.20;;;;;;;;;;5051333;28;20937;-68
2024/03/06 12:21:08;;;;;;;98.20;46.27;;;;;;;;;;5059461;28;20440;-67
2024/03/06 12:23:36;;;;;;;102.37;48.70;;;;;;;;;;5060795;28;20456;-70
2024/03/06 12:26:03;;;;;;;96.43;46.30;;;;;;;;;;5060940;28;20452;-70
2024/03/06 12:28:30;;;;;;;106.23;49.30;;;;;;;;;;5060165;28;20443;-71
2024/03/06 12:31:00;;;;;;;90.97;50.37;;;;;;;;;;5060950;28;20516;-70
2024/03/06 12:33:27;;;;;;;97.03;47.80;;;;;;;;;;5058521;28;20514;-69
2024/03/06 12:36:00;;;;;;;95.13;46.53;;;;;;;;;;5054808;28;20829;-67
2024/03/06 12:38:29;;;;;;;94.70;48.30;;;;;;;;;;5055456;28;20923;-67
2024/03/06 12:40:57;;;;;;;90.93;46.57;;;;;;;;;;5058554;28;20488;-67
2024/03/06 12:43:24;;;;;;;91.37;47.10;;;;;;;;;;5052718;28;20492;-69
2024/03/06 12:45:54;;;;;;;85.37;46.27;;;;;;;;;;5058714;28;20530;-66
2024/03/06 12:48:20;;;;;;;86.83;43.00;;;;;;;;;;5059208;28;20452;-71
2024/03/06 12:50:51;;;;;;;84.60;44.63;;;;;;;;;;5058456;28;20519;-69
2024/03/06 12:53:17;;;;;;;75.63;43.13;;;;;;;;;;5050381;28;20485;-69
2024/03/06 12:55:45;;;;;;;76.10;43.20;;;;;;;;;;5059357;28;20457;-69
2024/03/06 12:58:13;;;;;;;69.67;42.37;;;;;;;;;;5074890;28;20551;-70
2024/03/06 13:00:40;;;;;;;67.70;40.27;;;;;;;;;;5070116;28;20444;-69
2024/03/06 13:03:06;;;;;;;73.27;41.30;;;;;;;;;;5079446;28;20444;-69
2024/03/06 13:05:33;;;;;;;80.73;43.43;;;;;;;;;;5076039;28;20456;-69
2024/03/06 13:07:59;;;;;;;80.67;44.23;;;;;;;;;;5078822;28;21136;-69
2024/03/06 13:10:25;;;;;;;78.30;40.87;;;;;;;;;;5079747;28;20475;-70
2024/03/06 13:12:52;;;;;;;72.40;40.40;;;;;;;;;;5068203;28;20449;-69
2024/03/06 13:15:20;;;;;;;80.93;43.23;;;;;;;;;;5069940;28;20452;-69
2024/03/06 13:17:46;;;;;;;73.73;41.20;;;;;;;;;;5076512;28;20960;-67
2024/03/06 13:20:13;;;;;;;74.80;42.20;;;;;;;;;;5079522;28;20455;-69
2024/03/06 13:22:39;;;;;;;73.70;41.70;;;;;;;;;;5078835;28;20877;-69
2024/03/06 13:25:06;;;;;;;78.00;42.23;;;;;;;;;;5077544;28;20452;-68
2024/03/06 13:27:32;;;;;;;76.50;42.07;;;;;;;;;;5078503;28;20481;-67
2024/03/06 13:29:59;;;;;;;78.60;43.17;;;;;;;;;;5074181;28;20525;-66
2024/03/06 13:32:28;;;;;;;82.73;42.90;;;;;;;;;;5076637;28;20440;-69
2024/03/06 13:34:54;;;;;;;73.57;42.20;;;;;;;;;;5078637;28;20459;-67
2024/03/06 13:37:22;;;;;;;70.10;41.60;;;;;;;;;;5079070;28;20607;-67
2024/03/06 13:39:48;;;;;;;72.90;41.43;;;;;;;;;;5078336;28;20443;-68
2024/03/06 13:42:15;;;;;;;67.77;39.63;;;;;;;;;;5078678;28;20481;-67
2024/03/06 13:44:41;;;;;;;70.33;40.27;;;;;;;;;;5079249;28;20452;-70
2024/03/06 13:47:09;;;;;;;70.73;38.23;;;;;;;;;;5070034;28;20448;-70
2024/03/06 13:49:38;;;;;;;69.73;39.00;;;;;;;;;;5078303;28;20499;-70
2024/03/06 13:52:06;;;;;;;64.30;40.03;;;;;;;;;;5076711;28;20474;-71
2024/03/06 13:54:33;;;;;;;71.53;39.53;;;;;;;;;;5079398;28;20451;-69
2024/03/06 13:57:01;;;;;;;75.73;39.63;;;;;;;;;;5080502;28;20518;-70
2024/03/06 13:59:28;;;;;;;62.83;39.80;;;;;;;;;;5077042;28;20451;-67
2024/03/06 14:01:54;;;;;;;62.57;39.73;;;;;;;;;;5072603;28;20472;-70
2024/03/06 14:04:21;;;;;;;63.30;39.23;;;;;;;;;;5078178;28;20444;-67
2024/03/06 14:06:49;;;;;;;59.43;38.23;;;;;;;;;;5086059;28;20451;-75